Time,TemperatureF,DewpointF,PressureIn,WindDirection,WindDirectionDegrees,WindSpeedMPH,WindSpeedGustMPH,Humidity,HourlyPrecipIn,Conditions,Clouds,dailyrainin,SoftwareType,DateUTC
2013-03-04 00:00:00,24.9,20.5,30.07,NW,314,0.0,0.0,83,0.00,CLR,,0.00,WeatherDisplay:10.37,2013-03-04 05:00:00,
2013-03-04 00:09:00,24.6,20.2,30.08,NW,314,0.0,0.0,83,0.00,CLR,,0.00,WeatherDisplay:10.37,2013-03-04 05:09:00,
2013-03-04 00:20:00,24.4,20.0,30.08,NW,314,0.0,0.0,83,0.00,CLR,,0.00,WeatherDisplay:10.37,2013-03-04 05:20:00,
2013-03-04 00:30:00,24.1,20.0,30.08,NW,314,0.0,1.0,84,0.00,CLR,,0.00,WeatherDisplay:10.37,2013-03-04 05:30:00,
2013-03-04 00:40:00,23.8,20.2,30.08,NW,314,0.0,0.0,86,0.00,CLR,,0.00,WeatherDisplay:10.37,2013-03-04 05:40:00,
2013-03-04 00:50:00,23.7,19.8,30.08,NW,314,0.0,0.0,85,0.00,CLR,,0.00,WeatherDisplay:10.37,2013-03-04 05:50:00,
2013-03-04 00:59:00,23.5,19.9,30.08,NW,314,0.0,0.0,86,0.00,CLR,,0.00,WeatherDisplay:10.37,2013-03-04 05:59:00,
2013-03-04 01:10:00,23.3,19.7,30.08,NW,314,0.0,0.0,86,0.00,CLR,,0.00,WeatherDisplay:10.37,2013-03-04 06:10:00,
2013-03-04 01:20:00,23.1,19.8,30.08,NW,314,0.0,0.0,87,0.00,CLR,,0.00,WeatherDisplay:10.37,2013-03-04 06:20:00,
2013-03-04 01:30:00,22.8,19.2,30.09,NW,314,0.0,0.0,86,0.00,CLR,,0.00,WeatherDisplay:10.37,2013-03-04 06:30:00,
2013-03-04 01:40:00,22.6,19.0,30.09,NW,314,0.0,0.0,86,0.00,CLR,,0.00,WeatherDisplay:10.37,2013-03-04 06:40:00,
2013-03-04 01:49:00,22.3,18.8,30.09,NW,314,0.0,0.0,86,0.00,CLR,,0.00,WeatherDisplay:10.37,2013-03-04 06:49:00,
2013-03-04 01:59:00,22.1,18.8,30.10,NW,314,0.0,0.0,87,0.00,CLR,,0.00,WeatherDisplay:10.37,2013-03-04 06:59:00,
2013-03-04 02:10:00,21.9,18.7,30.09,NW,314,0.0,0.0,87,0.00,CLR,,0.00,WeatherDisplay:10.37,2013-03-04 07:10:00,
2013-03-04 02:20:00,21.9,18.6,30.09,NW,314,0.0,0.0,87,0.00,CLR,,0.00,WeatherDisplay:10.37,2013-03-04 07:20:00,
2013-03-04 02:30:00,21.7,18.7,30.10,NW,314,0.0,0.0,88,0.00,CLR,,0.00,WeatherDisplay:10.37,2013-03-04 07:30:00,
2013-03-04 02:39:00,21.6,18.6,30.10,NW,314,0.0,1.0,88,0.00,CLR,,0.00,WeatherDisplay:10.37,2013-03-04 07:39:00,
2013-03-04 02:49:00,21.5,18.5,30.10,NW,314,0.0,0.0,88,0.00,CLR,,0.00,WeatherDisplay:10.37,2013-03-04 07:49:00,
2013-03-04 02:59:00,21.2,18.2,30.10,NW,314,0.0,0.0,88,0.00,CLR,,0.00,WeatherDisplay:10.37,2013-03-04 07:59:00,
2013-03-04 03:10:00,21.0,18.0,30.10,NW,314,0.0,0.0,88,0.00,CLR,,0.00,WeatherDisplay:10.37,2013-03-04 08:10:00,
2013-03-04 03:19:00,20.8,17.8,30.10,NW,314,0.0,0.0,88,0.00,CLR,,0.00,WeatherDisplay:10.37,2013-03-04 08:19:00,
2013-03-04 03:30:00,20.7,17.7,30.10,NW,314,0.0,0.0,88,0.00,CLR,,0.00,WeatherDisplay:10.37,2013-03-04 08:30:00,
2013-03-04 03:40:00,20.5,17.8,30.10,NW,314,0.0,0.0,89,0.00,CLR,,0.00,WeatherDisplay:10.37,2013-03-04 08:40:00,
2013-03-04 03:50:00,20.4,17.7,30.10,NW,314,0.0,0.0,89,0.00,CLR,,0.00,WeatherDisplay:10.37,2013-03-04 08:50:00,
2013-03-04 03:59:00,20.1,17.4,30.11,NW,314,0.0,0.0,89,0.00,CLR,,0.00,WeatherDisplay:10.37,2013-03-04 08:59:00,
2013-03-04 04:10:00,20.0,17.3,30.11,NW,314,0.0,0.0,89,0.00,CLR,,0.00,WeatherDisplay:10.37,2013-03-04 09:10:00,
2013-03-04 04:19:00,19.7,16.7,30.11,NW,314,0.0,0.0,88,0.00,CLR,,0.00,WeatherDisplay:10.37,2013-03-04 09:19:00,
2013-03-04 04:29:00,19.6,16.9,30.12,NW,314,0.0,3.0,89,0.00,CLR,,0.00,WeatherDisplay:10.37,2013-03-04 09:29:00,
2013-03-04 04:39:00,19.6,17.1,30.12,NW,314,0.0,2.0,90,0.00,CLR,,0.00,WeatherDisplay:10.37,2013-03-04 09:39:00,
2013-03-04 04:50:00,19.5,16.8,30.12,NW,314,0.0,0.0,89,0.00,CLR,,0.00,WeatherDisplay:10.37,2013-03-04 09:50:00,
2013-03-04 05:00:00,19.3,16.6,30.12,NW,314,0.0,0.0,89,0.00,CLR,,0.00,WeatherDisplay:10.37,2013-03-04 10:00:00,
2013-03-04 05:10:00,19.2,16.5,30.13,NW,314,0.0,0.0,89,0.00,CLR,,0.00,WeatherDisplay:10.37,2013-03-04 10:10:00,
2013-03-04 05:19:00,19.1,16.4,30.13,NW,314,0.0,0.0,89,0.00,CLR,,0.00,WeatherDisplay:10.37,2013-03-04 10:19:00,
2013-03-04 05:29:00,19.0,16.3,30.13,NW,314,0.0,0.0,89,0.00,CLR,,0.00,WeatherDisplay:10.37,2013-03-04 10:29:00,
2013-03-04 05:40:00,18.9,16.4,30.14,NW,314,0.0,0.0,90,0.00,CLR,,0.00,WeatherDisplay:10.37,2013-03-04 10:40:00,
2013-03-04 05:50:00,18.8,16.3,30.14,NW,314,0.0,0.0,90,0.00,CLR,,0.00,WeatherDisplay:10.37,2013-03-04 10:50:00,
2013-03-04 05:59:00,18.6,16.2,30.14,NW,314,0.0,0.0,90,0.00,CLR,,0.00,WeatherDisplay:10.37,2013-03-04 10:59:00,
2013-03-04 06:09:00,18.5,16.1,30.15,NW,314,0.0,0.0,90,0.00,CLR,,0.00,WeatherDisplay:10.37,2013-03-04 11:09:00,
2013-03-04 06:20:00,18.4,15.9,30.15,NW,314,0.0,0.0,90,0.00,CLR,,0.00,WeatherDisplay:10.37,2013-03-04 11:20:00,
2013-03-04 06:29:00,18.2,15.8,30.15,NW,314,0.0,0.0,90,0.00,CLR,,0.00,WeatherDisplay:10.37,2013-03-04 11:29:00,
2013-03-04 06:39:00,18.1,15.7,30.15,NW,314,0.0,0.0,90,0.00,CLR,,0.00,WeatherDisplay:10.37,2013-03-04 11:39:00,
2013-03-04 06:49:00,18.0,15.6,30.15,NW,314,0.0,0.0,90,0.00,CLR,,0.00,WeatherDisplay:10.37,2013-03-04 11:49:00,
2013-03-04 06:59:00,17.9,15.5,30.15,NW,314,0.0,0.0,90,0.00,CLR,,0.00,WeatherDisplay:10.37,2013-03-04 11:59:00,
2013-03-04 07:09:00,17.8,15.4,30.15,NW,314,0.0,0.0,90,0.00,CLR,,0.00,WeatherDisplay:10.37,2013-03-04 12:09:00,
2013-03-04 07:19:00,18.0,15.6,30.15,NW,314,0.0,0.0,90,0.00,CLR,,0.00,WeatherDisplay:10.37,2013-03-04 12:19:00,
2013-03-04 07:29:00,18.1,15.7,30.15,NW,314,0.0,0.0,90,0.00,CLR,,0.00,WeatherDisplay:10.37,2013-03-04 12:29:00,
2013-03-04 07:40:00,18.3,15.9,30.15,NW,314,0.0,0.0,90,0.00,CLR,,0.00,WeatherDisplay:10.37,2013-03-04 12:40:00,
2013-03-04 07:50:00,18.5,16.1,30.15,NW,314,0.0,0.0,90,0.00,CLR,,0.00,WeatherDisplay:10.37,2013-03-04 12:50:00,
2013-03-04 07:59:00,19.0,16.8,30.16,NW,315,0.0,1.0,91,0.00,CLR,,0.00,WeatherDisplay:10.37,2013-03-04 12:59:00,
2013-03-04 08:09:00,19.6,17.7,30.16,NW,317,0.0,0.0,92,0.00,CLR,,0.00,WeatherDisplay:10.37,2013-03-04 13:09:00,
2013-03-04 08:19:00,20.6,19.1,30.16,NW,317,0.0,2.0,94,0.00,CLR,,0.00,WeatherDisplay:10.37,2013-03-04 13:19:00,
2013-03-04 08:30:00,21.2,19.5,30.17,NW,317,0.0,1.0,93,0.00,CLR,,0.00,WeatherDisplay:10.37,2013-03-04 13:30:00,
2013-03-04 08:39:00,22.1,20.7,30.17,NW,322,1.0,2.0,94,0.00,CLR,,0.00,WeatherDisplay:10.37,2013-03-04 13:39:00,
2013-03-04 08:49:00,23.3,21.9,30.17,NNW,346,0.0,2.0,94,0.00,CLR,,0.00,WeatherDisplay:10.37,2013-03-04 13:49:00,
2013-03-04 09:00:00,24.0,22.3,30.17,NNW,347,0.0,1.0,93,0.00,CLR,,0.00,WeatherDisplay:10.37,2013-03-04 14:00:00,
2013-03-04 09:09:00,24.8,22.6,30.17,NNW,347,0.0,0.0,91,0.00,CLR,,0.00,WeatherDisplay:10.37,2013-03-04 14:09:00,
2013-03-04 09:19:00,25.7,22.9,30.17,NNW,347,0.0,0.0,89,0.00,CLR,,0.00,WeatherDisplay:10.37,2013-03-04 14:19:00,
2013-03-04 09:29:00,27.0,24.2,30.17,NNW,348,0.0,3.0,89,0.00,CLR,,0.00,WeatherDisplay:10.37,2013-03-04 14:29:00,
2013-03-04 09:39:00,28.1,24.7,30.16,NE,45,1.0,5.0,87,0.00,CLR,,0.00,WeatherDisplay:10.37,2013-03-04 14:39:00,
2013-03-04 09:49:00,29.9,27.1,30.16,ESE,116,1.0,5.0,89,0.00,CLR,,0.00,WeatherDisplay:10.37,2013-03-04 14:49:00,
2013-03-04 09:59:00,31.3,27.3,30.16,ESE,106,0.0,4.0,85,0.00,CLR,,0.00,WeatherDisplay:10.37,2013-03-04 14:59:00,
2013-03-04 10:09:00,32.7,28.1,30.16,ESE,123,0.0,6.0,83,0.00,CLR,,0.00,WeatherDisplay:10.37,2013-03-04 15:09:00,
2013-03-04 10:19:00,34.2,27.4,30.15,SE,130,1.0,6.0,76,0.00,CLR,,0.00,WeatherDisplay:10.37,2013-03-04 15:19:00,
2013-03-04 10:29:00,35.2,27.7,30.15,SE,139,1.0,8.0,74,0.00,CLR,,0.00,WeatherDisplay:10.37,2013-03-04 15:29:00,
2013-03-04 10:39:00,36.0,27.5,30.15,South,177,0.0,6.0,71,0.00,CLR,,0.00,WeatherDisplay:10.37,2013-03-04 15:39:00,
2013-03-04 10:50:00,36.9,28.8,30.14,SE,141,0.0,4.0,72,0.00,CLR,,0.00,WeatherDisplay:10.37,2013-03-04 15:50:00,
2013-03-04 10:59:00,38.9,29.2,30.15,ESE,119,0.0,8.0,68,0.00,CLR,,0.00,WeatherDisplay:10.37,2013-03-04 15:59:00,
2013-03-04 11:09:00,39.4,30.1,30.15,ENE,67,2.0,4.0,69,0.00,CLR,,0.00,WeatherDisplay:10.37,2013-03-04 16:09:00,
2013-03-04 11:19:00,40.9,29.6,30.15,ENE,65,1.0,5.0,64,0.00,CLR,,0.00,WeatherDisplay:10.37,2013-03-04 16:19:00,
2013-03-04 11:29:00,41.1,29.0,30.14,ENE,58,3.0,7.0,62,0.00,CLR,,0.00,WeatherDisplay:10.37,2013-03-04 16:29:00,
2013-03-04 11:40:00,43.2,27.6,30.14,East,83,1.0,8.0,54,0.00,CLR,,0.00,WeatherDisplay:10.37,2013-03-04 16:40:00,
2013-03-04 11:49:00,44.5,26.0,30.14,NE,43,5.0,7.0,48,0.00,CLR,,0.00,WeatherDisplay:10.37,2013-03-04 16:49:00,
2013-03-04 11:59:00,43.7,27.2,30.14,North,358,0.0,5.0,52,0.00,CLR,,0.00,WeatherDisplay:10.37,2013-03-04 16:59:00,
2013-03-04 12:09:00,45.8,30.6,30.13,SE,126,2.0,6.0,55,0.00,CLR,,0.00,WeatherDisplay:10.37,2013-03-04 17:09:00,
2013-03-04 12:19:00,46.1,30.4,30.12,SSW,197,0.0,4.0,54,0.00,CLR,,0.00,WeatherDisplay:10.37,2013-03-04 17:19:00,
2013-03-04 12:29:00,47.3,30.5,30.12,NE,39,1.0,7.0,52,0.00,CLR,,0.00,WeatherDisplay:10.37,2013-03-04 17:29:00,
2013-03-04 12:39:00,47.8,31.0,30.11,SSW,193,1.0,7.0,52,0.00,CLR,,0.00,WeatherDisplay:10.37,2013-03-04 17:39:00,
2013-03-04 12:49:00,49.7,32.8,30.10,SSE,149,2.0,6.0,52,0.00,CLR,,0.00,WeatherDisplay:10.37,2013-03-04 17:49:00,
2013-03-04 12:59:00,51.3,33.3,30.09,East,97,2.0,6.0,50,0.00,CLR,,0.00,WeatherDisplay:10.37,2013-03-04 17:59:00,
2013-03-04 13:09:00,52.2,32.6,30.08,East,97,0.0,6.0,47,0.00,CLR,,0.00,WeatherDisplay:10.37,2013-03-04 18:09:00,
2013-03-04 13:19:00,52.7,31.3,30.08,SE,130,2.0,9.0,44,0.00,CLR,,0.00,WeatherDisplay:10.37,2013-03-04 18:19:00,
2013-03-04 13:29:00,53.2,25.6,30.08,SSE,164,1.0,8.0,34,0.00,CLR,,0.00,WeatherDisplay:10.37,2013-03-04 18:29:00,
2013-03-04 13:39:00,53.2,29.4,30.07,SSE,148,1.0,6.0,40,0.00,CLR,,0.00,WeatherDisplay:10.37,2013-03-04 18:39:00,
2013-03-04 13:50:00,54.7,31.4,30.06,ESE,122,9.0,12.0,41,0.00,CLR,,0.00,WeatherDisplay:10.37,2013-03-04 18:50:00,
2013-03-04 13:59:00,54.3,27.2,30.06,SSW,202,6.0,8.0,35,0.00,CLR,,0.00,WeatherDisplay:10.37,2013-03-04 18:59:00,
2013-03-04 14:09:00,54.5,29.4,30.05,SW,223,1.0,7.0,38,0.00,CLR,,0.00,WeatherDisplay:10.37,2013-03-04 19:09:00,
2013-03-04 14:19:00,52.2,27.9,30.05,WSW,245,6.0,9.0,39,0.00,CLR,,0.00,WeatherDisplay:10.37,2013-03-04 19:19:00,
2013-03-04 14:29:00,52.1,28.4,30.05,SSW,211,1.0,9.0,40,0.00,CLR,,0.00,WeatherDisplay:10.37,2013-03-04 19:29:00,
2013-03-04 14:39:00,52.5,30.1,30.04,WSW,238,0.0,9.0,42,0.00,CLR,,0.00,WeatherDisplay:10.37,2013-03-04 19:39:00,
2013-03-04 14:49:00,54.3,31.0,30.04,South,188,1.0,8.0,41,0.00,CLR,,0.00,WeatherDisplay:10.37,2013-03-04 19:49:00,
2013-03-04 15:00:00,54.7,32.6,30.04,WNW,295,5.0,7.0,43,0.00,CLR,,0.00,WeatherDisplay:10.37,2013-03-04 20:00:00,
2013-03-04 15:09:00,56.9,32.8,30.04,ESE,121,2.0,7.0,40,0.00,CLR,,0.00,WeatherDisplay:10.37,2013-03-04 20:09:00,
2013-03-04 15:19:00,57.5,32.7,30.04,ESE,123,0.0,10.0,39,0.00,CLR,,0.00,WeatherDisplay:10.37,2013-03-04 20:19:00,
2013-03-04 15:29:00,56.7,30.7,30.04,SE,142,1.0,5.0,37,0.00,CLR,,0.00,WeatherDisplay:10.37,2013-03-04 20:29:00,
2013-03-04 15:39:00,55.1,29.9,30.04,SSW,194,0.0,6.0,38,0.00,CLR,,0.00,WeatherDisplay:10.37,2013-03-04 20:39:00,
2013-03-04 15:49:00,54.2,29.7,30.04,SW,231,2.0,6.0,39,0.00,CLR,,0.00,WeatherDisplay:10.37,2013-03-04 20:49:00,
2013-03-04 15:59:00,52.9,29.8,30.03,SW,220,6.0,9.0,41,0.00,CLR,,0.00,WeatherDisplay:10.37,2013-03-04 20:59:00,
2013-03-04 16:09:00,52.5,30.6,30.03,SW,230,2.0,8.0,43,0.00,CLR,,0.00,WeatherDisplay:10.37,2013-03-04 21:09:00,
2013-03-04 16:19:00,51.7,29.9,30.03,WSW,241,2.0,8.0,43,0.00,CLR,,0.00,WeatherDisplay:10.37,2013-03-04 21:19:00,
2013-03-04 16:29:00,51.5,30.3,30.03,SW,228,1.0,8.0,44,0.00,CLR,,0.00,WeatherDisplay:10.37,2013-03-04 21:29:00,
2013-03-04 16:39:00,51.1,29.9,30.03,WSW,245,0.0,7.0,44,0.00,CLR,,0.00,WeatherDisplay:10.37,2013-03-04 21:39:00,
2013-03-04 16:49:00,51.3,30.1,30.02,SSW,211,2.0,6.0,44,0.00,CLR,,0.00,WeatherDisplay:10.37,2013-03-04 21:49:00,
2013-03-04 16:59:00,51.9,30.1,30.02,SSW,192,0.0,3.0,43,0.00,CLR,,0.00,WeatherDisplay:10.37,2013-03-04 21:59:00,
2013-03-04 17:09:00,52.1,30.3,30.02,SSW,195,2.0,3.0,43,0.00,CLR,,0.00,WeatherDisplay:10.37,2013-03-04 22:09:00,
2013-03-04 17:19:00,52.2,30.9,30.02,SSW,201,0.0,3.0,44,0.00,CLR,,0.00,WeatherDisplay:10.37,2013-03-04 22:19:00,
2013-03-04 17:29:00,52.4,30.5,30.02,SSW,206,1.0,4.0,43,0.00,CLR,,0.00,WeatherDisplay:10.37,2013-03-04 22:29:00,
2013-03-04 17:39:00,52.1,30.8,30.02,SSW,206,0.0,1.0,44,0.00,CLR,,0.00,WeatherDisplay:10.37,2013-03-04 22:39:00,
2013-03-04 17:49:00,52.0,30.2,30.02,SSW,206,0.0,0.0,43,0.00,CLR,,0.00,WeatherDisplay:10.37,2013-03-04 22:49:00,
2013-03-04 17:59:00,51.8,32.7,30.01,SSW,206,0.0,0.0,48,0.00,CLR,,0.00,WeatherDisplay:10.37,2013-03-04 22:59:00,
2013-03-04 18:09:00,51.3,32.8,30.01,SSW,206,0.0,0.0,49,0.00,CLR,,0.00,WeatherDisplay:10.37,2013-03-04 23:09:00,
2013-03-04 18:20:00,50.6,33.6,30.00,SSW,206,0.0,0.0,52,0.00,CLR,,0.00,WeatherDisplay:10.37,2013-03-04 23:20:00,
2013-03-04 18:29:00,49.8,32.9,30.00,SSW,206,0.0,0.0,52,0.00,CLR,,0.00,WeatherDisplay:10.37,2013-03-04 23:29:00,
2013-03-04 18:39:00,49.2,32.3,30.01,SSW,206,0.0,0.0,52,0.00,CLR,,0.00,WeatherDisplay:10.37,2013-03-04 23:39:00,
2013-03-04 18:49:00,48.3,31.5,30.01,SSW,206,0.0,1.0,52,0.00,CLR,,0.00,WeatherDisplay:10.37,2013-03-04 23:49:00,
2013-03-04 18:59:00,47.8,32.4,30.01,SSW,206,0.0,0.0,55,0.00,CLR,,0.00,WeatherDisplay:10.37,2013-03-04 23:59:00,
2013-03-04 19:09:00,47.5,32.5,30.00,SSW,206,0.0,0.0,56,0.00,CLR,,0.00,WeatherDisplay:10.37,2013-03-05 00:09:00,
2013-03-04 19:20:00,46.9,32.4,30.00,SSW,206,0.0,0.0,57,0.00,CLR,,0.00,WeatherDisplay:10.37,2013-03-05 00:20:00,
2013-03-04 19:29:00,46.7,32.3,30.00,SSW,206,0.0,0.0,57,0.00,CLR,,0.00,WeatherDisplay:10.37,2013-03-05 00:29:00,
2013-03-04 19:39:00,46.3,32.7,30.00,SSW,206,0.0,0.0,59,0.00,CLR,,0.00,WeatherDisplay:10.37,2013-03-05 00:39:00,
2013-03-04 19:49:00,45.9,32.4,30.00,SSW,206,0.0,0.0,59,0.00,CLR,,0.00,WeatherDisplay:10.37,2013-03-05 00:49:00,
2013-03-04 19:59:00,45.5,32.8,29.99,SSW,206,0.0,0.0,61,0.00,CLR,,0.00,WeatherDisplay:10.37,2013-03-05 00:59:00,
2013-03-04 20:09:00,45.5,32.4,29.98,SSW,193,0.0,3.0,60,0.00,CLR,,0.00,WeatherDisplay:10.37,2013-03-05 01:09:00,
2013-03-04 20:19:00,45.8,31.8,29.98,NE,49,1.0,4.0,58,0.00,CLR,,0.00,WeatherDisplay:10.37,2013-03-05 01:19:00,
2013-03-04 20:29:00,46.1,31.7,29.98,NE,51,0.0,3.0,57,0.00,CLR,,0.00,WeatherDisplay:10.37,2013-03-05 01:29:00,
2013-03-04 20:39:00,46.2,30.9,29.99,North,8,0.0,4.0,55,0.00,CLR,,0.00,WeatherDisplay:10.37,2013-03-05 01:39:00,
2013-03-04 20:49:00,46.2,31.4,29.99,NE,55,1.0,4.0,56,0.00,CLR,,0.00,WeatherDisplay:10.37,2013-03-05 01:49:00,
2013-03-04 20:59:00,46.1,30.8,30.00,ENE,78,0.0,1.0,55,0.00,CLR,,0.00,WeatherDisplay:10.37,2013-03-05 01:59:00,
2013-03-04 21:09:00,46.0,32.0,30.00,ENE,78,0.0,1.0,58,0.00,CLR,,0.00,WeatherDisplay:10.37,2013-03-05 02:09:00,
2013-03-04 21:19:00,45.6,32.5,30.00,ENE,78,0.0,0.0,60,0.00,CLR,,0.00,WeatherDisplay:10.37,2013-03-05 02:19:00,
2013-03-04 21:29:00,45.2,31.7,30.00,ENE,78,0.0,2.0,59,0.00,CLR,,0.00,WeatherDisplay:10.37,2013-03-05 02:29:00,
2013-03-04 21:39:00,45.2,33.3,30.00,ENE,78,0.0,2.0,63,0.00,CLR,,0.00,WeatherDisplay:10.37,2013-03-05 02:39:00,
2013-03-04 21:49:00,45.2,32.5,30.00,ENE,78,0.0,2.0,61,0.00,CLR,,0.00,WeatherDisplay:10.37,2013-03-05 02:49:00,
2013-03-04 21:59:00,45.0,32.8,30.01,ENE,78,0.0,2.0,62,0.00,CLR,,0.00,WeatherDisplay:10.37,2013-03-05 02:59:00,
2013-03-04 22:09:00,44.8,33.0,30.01,ENE,78,0.0,2.0,63,0.00,CLR,,0.00,WeatherDisplay:10.37,2013-03-05 03:09:00,
2013-03-04 22:19:00,44.1,31.1,30.02,ENE,78,0.0,2.0,60,0.00,CLR,,0.00,WeatherDisplay:10.37,2013-03-05 03:19:00,
2013-03-04 22:29:00,44.1,32.7,30.01,ENE,78,0.0,0.0,64,0.00,CLR,,0.00,WeatherDisplay:10.37,2013-03-05 03:29:00,
2013-03-04 22:39:00,43.4,31.2,30.02,ENE,78,0.0,0.0,62,0.00,CLR,,0.00,WeatherDisplay:10.37,2013-03-05 03:39:00,
2013-03-04 22:49:00,42.6,29.7,30.02,ENE,78,0.0,0.0,60,0.00,CLR,,0.00,WeatherDisplay:10.37,2013-03-05 03:49:00,
2013-03-04 22:59:00,42.8,32.2,30.02,ENE,78,0.0,0.0,66,0.00,CLR,,0.00,WeatherDisplay:10.37,2013-03-05 03:59:00,
2013-03-04 23:09:00,42.8,31.8,30.02,ENE,78,0.0,0.0,65,0.00,CLR,,0.00,WeatherDisplay:10.37,2013-03-05 04:09:00,
2013-03-04 23:19:00,42.7,32.9,30.02,ENE,78,0.0,0.0,68,0.00,CLR,,0.00,WeatherDisplay:10.37,2013-03-05 04:19:00,
2013-03-04 23:29:00,42.2,33.1,30.02,ENE,78,0.0,1.0,70,0.00,CLR,,0.00,WeatherDisplay:10.37,2013-03-05 04:29:00,
2013-03-04 23:39:00,41.3,31.5,30.02,ENE,78,0.0,0.0,68,0.00,CLR,,0.00,WeatherDisplay:10.37,2013-03-05 04:39:00,
2013-03-04 23:49:00,40.7,31.3,30.02,ENE,78,0.0,0.0,69,0.00,CLR,,0.00,WeatherDisplay:10.37,2013-03-05 04:49:00,
2013-03-04 23:59:00,40.3,31.6,30.01,SW,218,0.0,5.0,71,0.00,CLR,,0.00,WeatherDisplay:10.37,2013-03-05 04:59:00,